Time;durP1;ratioP1;P1;durP2;ratioP2;P2;SDS_P1;SDS_P2;PMS_P1;PMS_P2;Temp;Humidity;BMP_temperature;BMP_pressure;BME280_temperature;BME280_humidity;BME280_pressure;Samples;Min_cycle;Max_cycle;Signal;HPM_P1;HPM_P2
2023/01/31 00:01:07;;;;;;;18.20;12.60;;;1.50;99.90;;;;;;5092734;28;20201;-69
2023/01/31 00:03:33;;;;;;;20.77;11.63;;;1.50;99.90;;;;;;5092644;28;20253;-69
2023/01/31 00:06:13;;;;;;;19.23;12.10;;;1.50;99.90;;;;;;5096393;28;20207;-69
2023/01/31 00:08:42;;;;;;;25.10;12.37;;;1.40;99.90;;;;;;5096229;28;20254;-68
2023/01/31 00:11:09;;;;;;;20.90;11.70;;;1.50;99.90;;;;;;5096077;28;20228;-69
2023/01/31 00:13:36;;;;;;;20.67;11.37;;;1.40;99.90;;;;;;5096249;28;20208;-69
2023/01/31 00:16:03;;;;;;;24.33;11.43;;;1.40;99.90;;;;;;5096274;28;20204;-68
2023/01/31 00:18:30;;;;;;;22.30;12.00;;;1.50;99.90;;;;;;5096117;28;20655;-69
2023/01/31 00:20:57;;;;;;;22.23;12.17;;;1.50;99.90;;;;;;5096072;28;20201;-69
2023/01/31 00:23:24;;;;;;;24.10;11.87;;;1.50;99.90;;;;;;5095904;28;20193;-69
2023/01/31 00:25:52;;;;;;;20.67;12.63;;;1.50;99.90;;;;;;5095830;28;20597;-68
2023/01/31 00:28:18;;;;;;;23.67;12.30;;;1.60;99.90;;;;;;5096060;28;20757;-69
2023/01/31 00:30:45;;;;;;;20.87;12.93;;;1.60;99.90;;;;;;5096097;28;20201;-69
2023/01/31 00:33:11;;;;;;;24.47;11.10;;;1.60;99.90;;;;;;5096316;28;20196;-69
2023/01/31 00:35:40;;;;;;;21.83;12.00;;;1.60;99.90;;;;;;5095736;28;20647;-69
2023/01/31 00:38:07;;;;;;;23.70;12.67;;;1.60;99.90;;;;;;5095948;28;20196;-69
2023/01/31 00:40:33;;;;;;;20.63;11.23;;;1.70;99.90;;;;;;5095870;28;20200;-69
2023/01/31 00:43:01;;;;;;;21.63;11.30;;;1.70;99.90;;;;;;5095548;28;20200;-69
2023/01/31 00:45:28;;;;;;;17.47;10.97;;;1.70;99.90;;;;;;5095504;28;20736;-69
2023/01/31 00:47:55;;;;;;;17.63;11.67;;;1.70;99.90;;;;;;5095493;28;20227;-69
2023/01/31 00:50:21;;;;;;;24.33;12.10;;;1.70;99.90;;;;;;5095433;28;20655;-70
2023/01/31 00:52:48;;;;;;;25.13;10.03;;;1.70;99.90;;;;;;5095644;28;20246;-69
2023/01/31 00:55:14;;;;;;;18.67;9.90;;;1.70;99.90;;;;;;5095493;28;20269;-69
2023/01/31 00:57:41;;;;;;;17.40;10.77;;;1.70;99.90;;;;;;5095531;28;20200;-69
2023/01/31 01:00:11;;;;;;;22.13;11.50;;;1.70;99.90;;;;;;5095346;28;20373;-70
2023/01/31 01:02:38;;;;;;;20.53;11.20;;;1.70;99.90;;;;;;5095348;28;20196;-69
2023/01/31 01:05:05;;;;;;;17.83;10.50;;;1.70;99.90;;;;;;5095332;28;20241;-68
2023/01/31 01:07:31;;;;;;;22.23;12.13;;;1.70;99.90;;;;;;5095231;28;20200;-69
2023/01/31 01:09:58;;;;;;;22.93;11.80;;;1.70;99.90;;;;;;5095088;28;20255;-69
2023/01/31 01:12:25;;;;;;;23.20;10.57;;;1.80;99.90;;;;;;5095122;28;20197;-69
2023/01/31 01:14:51;;;;;;;19.90;11.07;;;1.80;99.90;;;;;;5094654;28;20717;-69
2023/01/31 01:17:19;;;;;;;19.10;11.13;;;1.90;99.90;;;;;;5094899;28;20200;-69
2023/01/31 01:19:46;;;;;;;21.77;11.07;;;1.80;99.90;;;;;;5094861;28;20196;-69
2023/01/31 01:22:14;;;;;;;20.10;10.83;;;1.80;99.90;;;;;;5095070;28;20192;-69
2023/01/31 01:24:41;;;;;;;20.07;11.03;;;1.80;99.90;;;;;;5094948;28;20211;-69
2023/01/31 01:27:08;;;;;;;20.80;9.60;;;1.80;99.90;;;;;;5094814;28;20204;-69
2023/01/31 01:29:35;;;;;;;21.10;10.87;;;1.80;99.90;;;;;;5094688;28;20231;-70
2023/01/31 01:32:02;;;;;;;16.57;10.43;;;1.70;99.90;;;;;;5094610;28;20204;-70
2023/01/31 01:34:30;;;;;;;19.60;11.07;;;1.60;99.90;;;;;;5094872;28;20241;-68
2023/01/31 01:36:57;;;;;;;15.93;10.03;;;1.60;99.90;;;;;;5094675;28;20200;-69
2023/01/31 01:39:24;;;;;;;16.37;10.93;;;1.60;99.90;;;;;;5094629;28;20196;-69
2023/01/31 01:41:51;;;;;;;17.57;11.17;;;1.60;99.90;;;;;;5094553;28;20235;-68
2023/01/31 01:44:42;;;;;;;22.90;10.93;;;1.50;99.90;;;;;;5094417;28;20226;-69
2023/01/31 01:47:15;;;;;;;19.37;11.83;;;1.50;99.90;;;;;;5094767;28;20197;-69
2023/01/31 01:49:43;;;;;;;21.70;11.33;;;1.50;99.90;;;;;;5094439;28;20239;-68
2023/01/31 01:52:13;;;;;;;22.57;11.37;;;1.40;99.90;;;;;;5094306;28;20250;-68
2023/01/31 01:54:46;;;;;;;14.93;11.43;;;1.40;99.90;;;;;;5094113;28;20192;-69
2023/01/31 01:57:15;;;;;;;20.80;11.00;;;1.40;99.90;;;;;;5093957;28;20196;-68
2023/01/31 01:59:45;;;;;;;18.37;10.90;;;1.30;99.90;;;;;;5094136;28;20204;-68
2023/01/31 02:02:13;;;;;;;21.13;10.43;;;1.30;99.90;;;;;;5094088;28;20204;-68
2023/01/31 02:04:42;;;;;;;20.60;12.17;;;1.30;99.90;;;;;;5093996;28;20200;-69
2023/01/31 02:07:10;;;;;;;18.63;9.60;;;1.30;99.90;;;;;;5093880;28;20196;-69
2023/01/31 02:09:44;;;;;;;21.03;10.03;;;1.40;99.90;;;;;;5093503;28;20289;-69
2023/01/31 02:12:12;;;;;;;19.00;11.13;;;1.40;99.90;;;;;;5094058;28;20196;-69
2023/01/31 02:14:39;;;;;;;21.03;11.13;;;1.40;99.90;;;;;;5094126;28;20200;-69
2023/01/31 02:17:11;;;;;;;20.67;11.87;;;1.40;99.90;;;;;;5093749;28;20269;-69
2023/01/31 02:19:48;;;;;;;22.13;11.10;;;1.40;99.90;;;;;;5093554;28;20652;-69
2023/01/31 02:22:21;;;;;;;19.97;10.87;;;1.50;99.90;;;;;;5093644;28;20192;-69
2023/01/31 02:25:21;;;;;;;17.20;9.70;;;1.50;99.90;;;;;;5093698;28;20200;-69
2023/01/31 02:28:24;;;;;;;17.77;10.67;;;1.60;99.90;;;;;;5092875;28;20196;-68
2023/01/31 02:31:35;;;;;;;24.37;11.57;;;1.60;99.90;;;;;;5089937;28;20250;-70
2023/01/31 02:34:09;;;;;;;18.37;10.03;;;1.60;99.90;;;;;;5093543;28;20203;-68
2023/01/31 02:37:02;;;;;;;24.27;11.87;;;1.60;99.90;;;;;;5093260;28;20195;-68
2023/01/31 02:39:38;;;;;;;19.63;10.93;;;1.60;99.90;;;;;;5093534;28;20309;-68
2023/01/31 02:42:14;;;;;;;15.27;8.73;;;1.60;99.90;;;;;;5093314;28;20204;-68
2023/01/31 02:44:59;;;;;;;21.67;10.13;;;1.60;99.90;;;;;;5093507;28;20199;-69
2023/01/31 02:47:43;;;;;;;19.67;11.93;;;1.60;99.90;;;;;;5093175;28;20648;-70
2023/01/31 02:50:19;;;;;;;20.13;10.80;;;1.60;99.90;;;;;;5093244;28;20208;-69
2023/01/31 02:52:50;;;;;;;20.73;11.17;;;1.50;99.90;;;;;;5093095;28;20332;-69
2023/01/31 02:58:10;;;;;;;21.60;11.40;;;1.50;99.90;;;;;;5093031;28;20200;-69
2023/01/31 03:00:40;;;;;;;17.43;10.43;;;1.50;99.90;;;;;;5093090;28;20204;-69
2023/01/31 03:03:12;;;;;;;21.47;11.53;;;1.50;99.90;;;;;;5092892;28;20647;-69
2023/01/31 03:05:41;;;;;;;22.97;11.93;;;1.50;99.90;;;;;;5092881;28;20741;-68
2023/01/31 03:08:15;;;;;;;22.17;11.90;;;1.50;99.90;;;;;;5092640;28;20200;-69
2023/01/31 03:11:00;;;;;;;15.97;10.80;;;1.50;99.90;;;;;;5092852;28;20224;-68
2023/01/31 03:13:38;;;;;;;21.80;11.20;;;1.50;99.90;;;;;;5092160;28;20192;-69
2023/01/31 03:19:12;;;;;;;19.00;11.80;;;1.50;99.90;;;;;;5092920;28;20200;-70
2023/01/31 03:21:44;;;;;;;17.50;10.93;;;1.60;99.90;;;;;;5093104;28;20291;-70
2023/01/31 03:24:13;;;;;;;22.57;11.37;;;1.50;99.90;;;;;;5092812;28;20246;-68
2023/01/31 03:26:40;;;;;;;20.10;12.73;;;1.50;99.90;;;;;;5092700;28;20200;-69
2023/01/31 03:29:10;;;;;;;20.37;11.17;;;1.50;99.90;;;;;;5092700;28;20605;-72
2023/01/31 03:31:40;;;;;;;22.03;11.20;;;1.50;99.90;;;;;;5093063;28;20204;-69
2023/01/31 03:34:10;;;;;;;18.40;11.90;;;1.50;99.90;;;;;;5092862;28;20192;-69
2023/01/31 03:36:44;;;;;;;24.70;11.93;;;1.50;99.90;;;;;;5092719;28;20200;-69
2023/01/31 03:39:20;;;;;;;23.33;11.60;;;1.50;99.90;;;;;;5095393;28;20200;-69
2023/01/31 03:41:55;;;;;;;21.80;11.43;;;1.50;99.90;;;;;;5096875;28;20276;-69
2023/01/31 03:44:34;;;;;;;19.70;11.80;;;1.50;99.90;;;;;;5096864;28;20204;-69
2023/01/31 03:47:05;;;;;;;19.83;11.30;;;1.40;99.90;;;;;;5096695;28;20200;-69
2023/01/31 03:49:33;;;;;;;26.83;12.93;;;1.30;99.90;;;;;;5096457;28;20223;-69
2023/01/31 03:52:06;;;;;;;20.07;12.07;;;1.30;99.90;;;;;;5096802;28;20340;-70
2023/01/31 03:54:37;;;;;;;27.37;13.37;;;1.30;99.90;;;;;;5096630;28;20253;-69
2023/01/31 03:57:08;;;;;;;23.67;13.20;;;1.30;99.90;;;;;;5096524;28;20196;-69
2023/01/31 03:59:39;;;;;;;26.43;14.03;;;1.30;99.90;;;;;;5096469;28;20196;-69
2023/01/31 04:02:09;;;;;;;27.87;14.00;;;1.40;99.90;;;;;;5096330;28;20201;-69
2023/01/31 04:04:40;;;;;;;28.23;13.80;;;1.40;99.90;;;;;;5096498;28;20335;-69
2023/01/31 04:07:08;;;;;;;26.80;13.67;;;1.40;99.90;;;;;;5096261;28;20200;-69
2023/01/31 04:09:36;;;;;;;29.53;13.57;;;1.40;99.90;;;;;;5095985;28;20240;-69
2023/01/31 04:12:03;;;;;;;31.33;13.33;;;1.40;99.90;;;;;;5096189;28;20240;-69
2023/01/31 04:14:30;;;;;;;23.37;13.60;;;1.50;99.90;;;;;;5095983;28;20245;-70
2023/01/31 04:16:57;;;;;;;23.47;13.23;;;1.40;99.90;;;;;;5096475;28;20200;-69
2023/01/31 04:19:23;;;;;;;18.90;11.20;;;1.50;99.90;;;;;;5096392;28;20202;-69
2023/01/31 04:21:50;;;;;;;24.27;12.80;;;1.50;99.90;;;;;;5096108;28;20250;-70
2023/01/31 04:24:18;;;;;;;27.83;12.17;;;1.50;99.90;;;;;;5095968;28;20245;-68
2023/01/31 04:26:44;;;;;;;24.60;13.17;;;1.50;99.90;;;;;;5095819;28;20196;-69
2023/01/31 04:29:11;;;;;;;26.00;12.70;;;1.50;99.90;;;;;;5095659;28;20220;-69
2023/01/31 04:31:38;;;;;;;20.67;13.10;;;1.50;99.90;;;;;;5095686;28;20601;-69
2023/01/31 04:34:05;;;;;;;25.50;13.40;;;1.50;99.90;;;;;;5095915;28;20227;-69
2023/01/31 04:36:31;;;;;;;23.47;12.90;;;1.50;99.90;;;;;;5095823;28;20196;-69
2023/01/31 04:38:59;;;;;;;23.37;12.27;;;1.50;99.90;;;;;;5095663;28;20196;-68
2023/01/31 04:41:27;;;;;;;23.70;12.00;;;1.50;99.90;;;;;;5095498;28;20667;-68
2023/01/31 04:43:54;;;;;;;26.73;13.40;;;1.50;99.90;;;;;;5095642;28;20201;-69
2023/01/31 04:46:21;;;;;;;24.87;12.57;;;1.50;99.90;;;;;;5095431;28;20579;-69
2023/01/31 04:48:47;;;;;;;24.87;13.17;;;1.50;99.90;;;;;;5095480;28;20227;-68
2023/01/31 04:51:14;;;;;;;24.30;12.00;;;1.50;99.90;;;;;;5094790;28;20193;-69
2023/01/31 04:53:43;;;;;;;21.97;10.97;;;1.50;99.90;;;;;;5095653;28;20192;-69
2023/01/31 04:56:09;;;;;;;23.33;11.73;;;1.50;99.90;;;;;;5095283;28;20192;-69
2023/01/31 04:58:37;;;;;;;20.17;11.63;;;1.50;99.90;;;;;;5095148;28;20200;-69
2023/01/31 05:01:04;;;;;;;21.73;11.30;;;1.50;99.90;;;;;;5095163;28;20651;-69
2023/01/31 05:03:30;;;;;;;25.23;11.83;;;1.50;99.90;;;;;;5095259;28;20246;-69
2023/01/31 05:05:57;;;;;;;23.10;12.30;;;1.50;99.90;;;;;;5095141;28;20196;-69
2023/01/31 05:08:23;;;;;;;21.20;11.73;;;1.40;99.90;;;;;;5095024;28;20555;-69
2023/01/31 05:10:56;;;;;;;21.83;11.43;;;1.40;99.90;;;;;;5094623;28;20295;-69
2023/01/31 05:13:24;;;;;;;27.77;12.03;;;1.40;99.90;;;;;;5095167;28;20207;-69
2023/01/31 05:15:52;;;;;;;23.20;11.37;;;1.50;99.90;;;;;;5095015;28;20516;-69
2023/01/31 05:18:18;;;;;;;23.73;10.80;;;1.50;99.90;;;;;;5094944;28;20192;-68
2023/01/31 05:20:45;;;;;;;24.37;10.80;;;1.50;99.90;;;;;;5094818;28;20249;-68
2023/01/31 05:23:12;;;;;;;22.60;11.13;;;1.50;99.90;;;;;;5094799;28;20197;-69
2023/01/31 05:25:38;;;;;;;19.73;9.83;;;1.50;99.90;;;;;;5094563;28;20254;-69
2023/01/31 05:28:05;;;;;;;23.63;12.00;;;1.50;99.90;;;;;;5094799;28;20230;-69
2023/01/31 05:30:32;;;;;;;24.03;10.90;;;1.50;99.90;;;;;;5094654;28;20274;-69
2023/01/31 05:33:00;;;;;;;17.60;10.37;;;1.50;99.90;;;;;;5094686;28;20245;-69
2023/01/31 05:35:26;;;;;;;21.97;10.73;;;1.50;99.90;;;;;;5094505;28;20656;-69
2023/01/31 05:37:53;;;;;;;25.07;10.90;;;1.50;99.90;;;;;;5094452;28;20258;-70
2023/01/31 05:40:20;;;;;;;21.67;11.30;;;1.50;99.90;;;;;;5094312;28;20524;-69
2023/01/31 05:42:53;;;;;;;19.27;10.63;;;1.50;99.90;;;;;;5094568;28;20246;-70
2023/01/31 05:45:20;;;;;;;22.43;10.90;;;1.50;99.90;;;;;;5094440;28;20602;-69
2023/01/31 05:47:47;;;;;;;23.97;11.30;;;1.50;99.90;;;;;;5094341;28;20250;-70
2023/01/31 05:50:15;;;;;;;26.17;10.97;;;1.40;99.90;;;;;;5094191;28;20228;-69
2023/01/31 05:52:41;;;;;;;19.50;10.83;;;1.40;99.90;;;;;;5094121;28;20250;-69
2023/01/31 05:55:08;;;;;;;21.60;10.23;;;1.50;99.90;;;;;;5094280;28;20195;-69
2023/01/31 05:57:35;;;;;;;20.83;10.67;;;1.40;99.90;;;;;;5094212;28;20242;-69
2023/01/31 06:00:02;;;;;;;20.63;11.20;;;1.40;99.90;;;;;;5094217;28;20241;-69
2023/01/31 06:02:29;;;;;;;23.80;11.63;;;1.40;99.90;;;;;;5093022;28;20196;-69
2023/01/31 06:04:56;;;;;;;24.67;11.00;;;1.40;99.90;;;;;;5093899;28;20236;-70
2023/01/31 06:07:24;;;;;;;20.27;10.93;;;1.40;99.90;;;;;;5093842;28;20724;-70
2023/01/31 06:09:50;;;;;;;20.73;10.80;;;1.30;99.90;;;;;;5093845;28;20231;-70
2023/01/31 06:12:17;;;;;;;20.73;11.30;;;1.30;99.90;;;;;;5093755;28;20716;-70
2023/01/31 06:14:44;;;;;;;47.70;22.73;;;1.30;99.90;;;;;;5093809;28;20199;-69
2023/01/31 06:17:11;;;;;;;21.03;12.33;;;1.30;99.90;;;;;;5093703;28;20200;-69
2023/01/31 06:19:38;;;;;;;46.97;29.47;;;1.20;99.90;;;;;;5093638;28;20208;-69
2023/01/31 06:22:05;;;;;;;22.77;11.97;;;1.20;99.90;;;;;;5093870;28;20196;-70
2023/01/31 06:24:33;;;;;;;23.13;12.63;;;1.10;99.90;;;;;;5093827;28;20288;-70
2023/01/31 06:26:59;;;;;;;30.90;12.27;;;1.00;99.90;;;;;;5093601;28;20250;-69
2023/01/31 06:29:26;;;;;;;26.97;13.33;;;0.90;99.90;;;;;;5093265;28;20571;-69
2023/01/31 06:31:53;;;;;;;23.27;13.30;;;0.90;99.90;;;;;;5093401;28;20269;-69
2023/01/31 06:34:20;;;;;;;24.37;14.50;;;0.80;99.90;;;;;;5093343;28;20197;-70
2023/01/31 06:36:46;;;;;;;24.10;13.40;;;0.80;99.90;;;;;;5093551;28;20200;-70
2023/01/31 06:39:14;;;;;;;30.17;12.53;;;0.80;99.90;;;;;;5093491;28;20262;-69
2023/01/31 06:41:42;;;;;;;23.67;13.60;;;0.70;99.90;;;;;;5093252;28;20230;-69
2023/01/31 06:44:08;;;;;;;26.13;12.33;;;0.70;99.90;;;;;;5093139;28;20192;-69
2023/01/31 06:46:35;;;;;;;21.87;12.40;;;0.60;99.90;;;;;;5093078;28;20196;-70
2023/01/31 06:49:02;;;;;;;21.27;12.67;;;0.60;99.90;;;;;;5092724;28;20196;-70
2023/01/31 06:51:28;;;;;;;27.53;13.70;;;0.60;99.90;;;;;;5093061;28;20253;-70
2023/01/31 06:53:55;;;;;;;26.17;13.23;;;0.60;99.90;;;;;;5093108;28;20200;-70
2023/01/31 06:56:23;;;;;;;25.80;12.37;;;0.60;99.90;;;;;;5092864;28;20570;-69
2023/01/31 06:58:50;;;;;;;29.63;14.90;;;0.60;99.90;;;;;;5092995;28;20242;-70
2023/01/31 07:01:17;;;;;;;25.43;14.10;;;0.60;99.90;;;;;;5092984;28;20455;-69
2023/01/31 07:03:44;;;;;;;23.70;13.50;;;0.50;99.90;;;;;;5093194;28;20281;-70
2023/01/31 07:06:11;;;;;;;22.70;12.73;;;0.50;99.90;;;;;;5092946;28;20192;-70
2023/01/31 07:08:38;;;;;;;20.47;12.83;;;0.50;99.90;;;;;;5093056;28;20196;-70
2023/01/31 07:11:05;;;;;;;26.90;14.07;;;0.50;99.90;;;;;;5092582;28;20236;-69
2023/01/31 07:13:32;;;;;;;23.93;13.30;;;0.50;99.90;;;;;;5092581;28;20562;-70
2023/01/31 07:16:00;;;;;;;29.77;14.10;;;0.50;99.90;;;;;;5092624;28;20201;-70
2023/01/31 07:18:27;;;;;;;23.27;14.37;;;0.40;99.90;;;;;;5092913;28;20192;-69
2023/01/31 07:20:53;;;;;;;21.87;14.33;;;0.30;99.90;;;;;;5093030;28;20200;-69
2023/01/31 07:23:20;;;;;;;30.97;14.43;;;0.40;99.90;;;;;;5092834;28;20200;-69
2023/01/31 07:25:47;;;;;;;23.77;13.20;;;0.40;99.90;;;;;;5092979;28;20245;-70
2023/01/31 07:28:13;;;;;;;22.50;12.83;;;0.40;99.90;;;;;;5092870;28;20192;-69
2023/01/31 07:30:42;;;;;;;25.53;13.77;;;0.40;99.90;;;;;;5092535;28;20270;-69
2023/01/31 07:33:10;;;;;;;18.93;12.13;;;0.50;99.90;;;;;;5092763;28;20643;-69
2023/01/31 07:35:37;;;;;;;20.97;13.43;;;0.50;99.90;;;;;;5092746;28;20195;-70
2023/01/31 07:38:03;;;;;;;23.10;13.10;;;0.50;99.90;;;;;;5092519;28;20721;-69
2023/01/31 07:40:30;;;;;;;23.50;12.80;;;0.50;99.90;;;;;;5092639;28;20196;-69
2023/01/31 07:42:58;;;;;;;29.83;13.43;;;0.60;99.90;;;;;;5092444;28;20564;-69
2023/01/31 07:45:25;;;;;;;23.43;12.57;;;0.60;99.90;;;;;;5092688;28;20196;-69
2023/01/31 07:47:52;;;;;;;20.83;12.43;;;0.60;99.90;;;;;;5092565;28;20193;-69
2023/01/31 07:50:20;;;;;;;25.13;12.67;;;0.70;99.90;;;;;;5092483;28;20220;-69
2023/01/31 07:52:48;;;;;;;20.70;12.60;;;0.80;99.90;;;;;;5092484;28;20261;-68
2023/01/31 07:55:15;;;;;;;27.60;12.87;;;0.90;99.90;;;;;;5092415;28;20230;-69
2023/01/31 07:57:42;;;;;;;21.80;11.70;;;0.90;99.90;;;;;;5092428;28;20521;-68
2023/01/31 08:03:31;;;;;;;24.07;12.53;;;0.90;99.90;;;;;;5092619;28;20204;-68
2023/01/31 08:05:45;;;;;;;20.37;11.43;;;0.90;99.90;;;;;;5092530;28;20757;-69
2023/01/31 08:08:12;;;;;;;18.60;10.10;;;0.90;99.90;;;;;;5092338;28;20655;-69
2023/01/31 08:10:39;;;;;;;22.20;11.57;;;0.90;99.90;;;;;;5092186;28;20691;-69
2023/01/31 08:13:06;;;;;;;21.60;11.10;;;1.00;99.90;;;;;;5092404;28;20270;-69
2023/01/31 08:15:33;;;;;;;18.90;11.47;;;1.00;99.90;;;;;;5092314;28;20197;-69
2023/01/31 08:17:59;;;;;;;20.93;10.87;;;1.10;99.90;;;;;;5092389;28;20201;-69
2023/01/31 08:20:26;;;;;;;22.47;10.83;;;1.20;99.90;;;;;;5092178;28;20559;-70
2023/01/31 08:22:57;;;;;;;17.20;10.60;;;1.20;99.90;;;;;;5092388;28;20279;-70
2023/01/31 08:25:25;;;;;;;27.63;11.63;;;1.20;99.90;;;;;;5093469;28;20196;-70
2023/01/31 08:27:52;;;;;;;18.30;10.47;;;1.10;99.90;;;;;;5095957;28;20192;-70
2023/01/31 08:30:18;;;;;;;22.20;11.23;;;1.20;99.90;;;;;;5095780;28;20285;-70
2023/01/31 08:32:45;;;;;;;19.30;10.63;;;1.30;99.90;;;;;;5095573;28;20204;-68
2023/01/31 08:35:11;;;;;;;21.43;11.13;;;1.40;99.90;;;;;;5095661;28;20200;-68
2023/01/31 08:37:38;;;;;;;21.73;10.67;;;1.40;99.90;;;;;;5095842;28;20198;-69
2023/01/31 08:40:08;;;;;;;16.33;10.27;;;1.70;99.90;;;;;;5095813;28;20204;-69
2023/01/31 08:42:34;;;;;;;20.90;10.23;;;1.70;99.90;;;;;;5095728;28;20200;-69
2023/01/31 08:45:01;;;;;;;20.47;10.47;;;1.70;99.90;;;;;;5095606;28;20242;-69
2023/01/31 08:47:28;;;;;;;18.47;10.43;;;1.70;99.90;;;;;;5095387;28;20196;-69
2023/01/31 08:49:54;;;;;;;15.30;9.33;;;1.80;99.90;;;;;;5095624;28;20238;-70
2023/01/31 08:52:21;;;;;;;14.83;9.77;;;1.80;99.90;;;;;;5095669;28;20196;-70
2023/01/31 08:54:47;;;;;;;16.50;9.50;;;1.90;99.90;;;;;;5095512;28;20196;-70
2023/01/31 08:57:15;;;;;;;19.70;9.83;;;1.90;99.90;;;;;;5095409;28;20250;-70
2023/01/31 08:59:42;;;;;;;21.70;11.70;;;1.90;99.90;;;;;;5095255;28;20719;-70
2023/01/31 09:02:10;;;;;;;18.30;11.03;;;1.80;99.90;;;;;;5095174;28;20200;-69
2023/01/31 09:04:37;;;;;;;18.43;11.10;;;1.70;99.90;;;;;;5095234;28;20712;-69
2023/01/31 09:07:04;;;;;;;18.93;11.47;;;1.80;99.90;;;;;;5095263;28;20192;-69
2023/01/31 09:09:30;;;;;;;19.03;11.80;;;1.80;99.90;;;;;;5094831;28;20537;-69
2023/01/31 09:11:57;;;;;;;18.53;11.50;;;1.70;99.90;;;;;;5094944;28;20221;-70
2023/01/31 09:14:25;;;;;;;23.17;13.00;;;1.80;99.90;;;;;;5094979;28;20200;-69
2023/01/31 09:16:52;;;;;;;20.47;11.87;;;1.80;99.90;;;;;;5094703;28;20199;-69
2023/01/31 09:19:19;;;;;;;17.83;10.70;;;1.80;99.90;;;;;;5094597;28;20720;-69
2023/01/31 09:21:45;;;;;;;22.73;11.73;;;1.70;99.90;;;;;;5094787;28;20210;-70
2023/01/31 09:24:12;;;;;;;27.20;13.70;;;1.70;99.90;;;;;;5094508;28;20560;-69
2023/01/31 09:26:38;;;;;;;23.53;13.57;;;1.80;99.90;;;;;;5094789;28;20196;-70
2023/01/31 09:29:05;;;;;;;24.73;12.50;;;1.70;99.90;;;;;;5094673;28;20242;-69
2023/01/31 09:31:33;;;;;;;19.03;10.77;;;1.70;99.90;;;;;;5094712;28;20525;-69
2023/01/31 09:33:59;;;;;;;23.70;12.43;;;1.80;99.90;;;;;;5094668;28;20196;-69
2023/01/31 09:36:26;;;;;;;15.60;10.43;;;1.80;99.90;;;;;;5094203;28;20656;-70
2023/01/31 09:38:56;;;;;;;22.17;11.20;;;1.80;99.90;;;;;;5094446;28;20192;-69
2023/01/31 09:41:27;;;;;;;19.83;11.20;;;1.90;99.90;;;;;;5094304;28;20721;-69
2023/01/31 09:43:58;;;;;;;17.50;11.03;;;2.10;99.90;;;;;;5094232;28;20185;-71
2023/01/31 09:46:30;;;;;;;17.13;9.97;;;2.20;99.90;;;;;;5094464;28;20230;-69
2023/01/31 09:49:04;;;;;;;18.20;10.57;;;2.10;99.90;;;;;;5094462;28;20283;-70
2023/01/31 09:51:31;;;;;;;18.20;10.07;;;2.00;99.90;;;;;;5094350;28;20269;-69
2023/01/31 09:53:59;;;;;;;17.00;9.60;;;2.10;99.90;;;;;;5094255;28;20663;-69
2023/01/31 09:56:34;;;;;;;18.83;9.67;;;2.20;99.90;;;;;;5094115;28;20237;-69
2023/01/31 09:59:12;;;;;;;21.13;9.97;;;2.20;99.90;;;;;;5094344;28;20532;-69
2023/01/31 10:01:48;;;;;;;20.23;10.93;;;2.10;99.90;;;;;;5093954;28;20234;-70
2023/01/31 10:04:38;;;;;;;19.33;10.23;;;2.10;99.90;;;;;;5093945;28;20199;-69
2023/01/31 10:07:10;;;;;;;22.33;10.90;;;2.10;99.90;;;;;;5093841;28;20594;-69
2023/01/31 10:09:42;;;;;;;18.07;9.27;;;2.00;99.90;;;;;;5093957;28;20285;-69
2023/01/31 10:12:13;;;;;;;22.40;11.03;;;2.00;99.90;;;;;;5093822;28;20224;-69
2023/01/31 10:14:46;;;;;;;18.00;11.23;;;2.00;99.90;;;;;;5093841;28;20197;-69
2023/01/31 10:17:18;;;;;;;22.33;11.77;;;2.00;99.90;;;;;;5093563;28;20211;-69
2023/01/31 10:19:50;;;;;;;24.27;10.67;;;2.00;99.90;;;;;;5093873;28;20196;-69
2023/01/31 10:22:22;;;;;;;20.17;10.60;;;2.10;99.90;;;;;;5093665;28;20539;-69
2023/01/31 10:24:54;;;;;;;17.73;10.50;;;2.10;99.90;;;;;;5093703;28;20200;-68
2023/01/31 10:27:40;;;;;;;21.47;11.13;;;2.10;99.90;;;;;;5093686;28;20254;-70
2023/01/31 10:30:16;;;;;;;20.23;11.03;;;2.30;99.90;;;;;;5093802;28;20211;-69
2023/01/31 10:32:47;;;;;;;14.73;9.10;;;2.40;99.90;;;;;;5093547;28;20659;-69
2023/01/31 10:35:19;;;;;;;23.70;11.17;;;2.40;99.90;;;;;;5093649;28;20594;-69
2023/01/31 10:37:49;;;;;;;16.07;10.93;;;2.50;99.90;;;;;;5093412;28;20606;-70
2023/01/31 10:40:18;;;;;;;20.30;10.37;;;2.60;99.90;;;;;;5093957;28;20204;-69
2023/01/31 10:42:51;;;;;;;17.37;9.87;;;2.50;99.90;;;;;;5093575;28;20196;-70
2023/01/31 10:45:21;;;;;;;13.97;9.07;;;2.40;99.90;;;;;;5093405;28;20200;-69
2023/01/31 10:47:50;;;;;;;17.63;10.70;;;2.40;99.90;;;;;;5092448;28;20257;-71
2023/01/31 10:50:25;;;;;;;18.27;9.97;;;2.50;99.90;;;;;;5093227;28;20261;-69
2023/01/31 10:53:06;;;;;;;18.30;11.07;;;2.40;99.90;;;;;;5093373;28;20246;-70
2023/01/31 10:55:43;;;;;;;15.83;9.67;;;2.70;99.90;;;;;;5093356;28;20200;-69
2023/01/31 10:58:14;;;;;;;18.83;9.47;;;2.80;99.90;;;;;;5093293;28;20718;-70
2023/01/31 11:00:40;;;;;;;15.60;9.70;;;2.60;99.90;;;;;;5093247;28;20200;-70
2023/01/31 11:03:10;;;;;;;18.63;10.10;;;2.50;99.90;;;;;;5093246;28;20321;-69
2023/01/31 11:05:43;;;;;;;20.53;10.23;;;2.50;99.90;;;;;;5093325;28;20200;-70
2023/01/31 11:08:25;;;;;;;14.63;9.93;;;2.50;99.90;;;;;;5093208;28;20200;-69
2023/01/31 11:10:55;;;;;;;14.37;10.17;;;2.50;99.90;;;;;;5092912;28;20224;-68
2023/01/31 11:13:22;;;;;;;22.03;12.93;;;2.40;99.90;;;;;;5092871;28;20237;-68
2023/01/31 11:15:52;;;;;;;20.80;11.13;;;2.50;99.90;;;;;;5093101;28;20250;-69
2023/01/31 11:18:27;;;;;;;16.40;9.83;;;2.60;99.90;;;;;;5093109;28;20196;-69
2023/01/31 11:20:56;;;;;;;18.00;10.93;;;2.60;99.90;;;;;;5093003;28;20200;-68
2023/01/31 11:23:24;;;;;;;21.70;10.43;;;2.80;99.90;;;;;;5092873;28;20245;-70
2023/01/31 11:25:54;;;;;;;23.83;10.23;;;2.60;99.90;;;;;;5092788;28;20253;-70
2023/01/31 11:28:23;;;;;;;16.13;9.40;;;2.60;99.90;;;;;;5092844;28;20200;-69
2023/01/31 11:30:52;;;;;;;18.83;10.07;;;2.80;99.90;;;;;;5092605;28;20630;-69
2023/01/31 11:33:39;;;;;;;18.63;10.30;;;2.80;99.90;;;;;;5092702;28;20196;-70
2023/01/31 11:36:11;;;;;;;17.17;9.73;;;2.70;99.90;;;;;;5092812;28;20253;-70
2023/01/31 11:38:38;;;;;;;15.40;8.20;;;2.60;99.90;;;;;;5092568;28;20253;-69
2023/01/31 11:41:27;;;;;;;17.23;8.27;;;2.60;99.90;;;;;;5092869;28;20262;-70
2023/01/31 11:44:07;;;;;;;17.03;8.40;;;2.50;99.90;;;;;;5092442;28;20196;-70
2023/01/31 11:46:42;;;;;;;15.83;7.67;;;2.50;99.90;;;;;;5092547;28;20196;-69
2023/01/31 11:49:14;;;;;;;15.37;8.50;;;2.30;99.90;;;;;;5092442;28;20811;-70
2023/01/31 11:51:43;;;;;;;16.77;8.13;;;2.40;99.90;;;;;;5092494;28;20224;-69
2023/01/31 11:54:16;;;;;;;21.23;8.80;;;2.50;99.90;;;;;;5092516;28;20510;-70
2023/01/31 11:56:44;;;;;;;20.27;8.83;;;2.50;99.90;;;;;;5092615;28;20200;-69
2023/01/31 11:59:15;;;;;;;15.97;8.50;;;2.50;99.90;;;;;;5092453;28;20283;-70
2023/01/31 12:01:46;;;;;;;19.00;7.80;;;2.50;99.90;;;;;;5095970;28;20204;-71
2023/01/31 12:04:17;;;;;;;18.27;8.20;;;2.60;99.90;;;;;;5096314;28;20308;-71
2023/01/31 12:06:56;;;;;;;19.03;8.13;;;2.60;99.90;;;;;;5096475;28;20196;-71
2023/01/31 12:09:25;;;;;;;14.93;7.70;;;2.70;99.90;;;;;;5096103;28;20551;-70
2023/01/31 12:11:54;;;;;;;20.27;8.30;;;2.70;99.90;;;;;;5096066;28;20220;-70
2023/01/31 12:14:20;;;;;;;15.13;7.60;;;2.90;99.90;;;;;;5096502;28;20250;-69
2023/01/31 12:16:49;;;;;;;16.60;8.67;;;2.90;99.90;;;;;;5096289;28;20602;-69
2023/01/31 12:19:27;;;;;;;14.47;6.60;;;2.90;99.90;;;;;;5096045;28;20650;-70
2023/01/31 12:22:02;;;;;;;13.97;8.03;;;2.80;99.90;;;;;;5096065;28;20671;-70
2023/01/31 12:24:39;;;;;;;14.33;7.23;;;2.80;99.90;;;;;;5096192;28;20204;-70
2023/01/31 12:27:17;;;;;;;14.77;7.30;;;2.80;99.90;;;;;;5095939;28;20651;-70
2023/01/31 12:30:02;;;;;;;12.83;6.23;;;2.70;99.90;;;;;;5095994;28;20201;-69
2023/01/31 12:32:46;;;;;;;12.53;6.40;;;2.70;99.90;;;;;;5095805;28;20253;-68
2023/01/31 12:35:40;;;;;;;17.57;7.20;;;2.70;99.90;;;;;;5095940;28;20544;-69
2023/01/31 12:38:22;;;;;;;18.17;8.20;;;2.80;99.90;;;;;;5090572;28;20196;-69
2023/01/31 12:40:57;;;;;;;14.03;6.67;;;2.80;99.90;;;;;;5095702;28;20262;-70
2023/01/31 12:43:39;;;;;;;15.17;6.23;;;2.70;99.90;;;;;;5095559;28;20655;-69
2023/01/31 12:46:14;;;;;;;10.57;6.13;;;2.80;99.90;;;;;;5095740;28;20205;-70
2023/01/31 12:49:04;;;;;;;9.57;5.43;;;2.70;99.90;;;;;;5095553;28;20244;-69
2023/01/31 12:51:41;;;;;;;12.07;6.20;;;2.60;99.90;;;;;;5095358;28;20224;-69
2023/01/31 12:54:22;;;;;;;13.60;6.53;;;2.60;99.90;;;;;;5095545;28;20204;-69
2023/01/31 12:57:02;;;;;;;18.53;6.43;;;2.60;99.90;;;;;;5095496;28;20204;-69
2023/01/31 12:59:41;;;;;;;12.77;6.47;;;2.60;99.90;;;;;;5095326;28;20202;-69
2023/01/31 13:02:22;;;;;;;14.47;6.43;;;2.60;99.90;;;;;;5095347;28;20606;-69